Latest Weather Observations for Noarlunga

IDS60801

Issued at 5:02 pm CDT Wednesday 28 January 2015 (issued every 30 minutes, with the page automatically refreshed every 10 minutes)

About weather observations | Map of weather stations | Latest weather observations for SA | Other Formats
Station Details ID: 023885 Name: NOARLUNGA Lat: -35.16 Lon: 138.51 Height: 55.0 m
Data from the previous 72 hours. | See also: Recent months at Noarlunga
Date/Time
CDT
Temp
°C
App
Temp
°C
Dew
Point
Rel
Hum
%
Delta-T
°C
Wind Press
QNH
hPa
Press
MSL
hPa
Rain
since 9 am
mm
Dir
 
Spd
km/h
Gust
km/h
Spd
kts
Gust
kts
28/05:00pm 22.3 16.4 9.1 43 7.1 SSE 30 41 16 22 - - 0.0
28/04:30pm 22.7 17.7 8.0 39 7.7 SE 24 35 13 19 - - 0.0
28/04:00pm 22.7 16.4 7.3 37 8.0 SE 30 43 16 23 - - 0.0
28/03:30pm 22.3 16.6 6.9 37 7.9 SSE 26 41 14 22 - - 0.0
28/03:00pm 22.4 15.6 7.0 37 7.9 SE 32 41 17 22 - - 0.0
28/02:30pm 22.0 15.2 6.7 37 7.8 SSE 32 43 17 23 - - 0.0
28/02:00pm 22.5 16.9 7.1 37 8.0 SSE 26 37 14 20 - - 0.0
28/01:30pm 21.7 15.9 6.4 37 7.8 SSE 26 41 14 22 - - 0.0
28/01:00pm 22.0 15.1 6.3 36 8.0 SSE 32 44 17 24 - - 0.0
28/12:35pm 20.9 14.2 5.7 37 7.6 SSE 30 48 16 26 - - 0.0
28/12:30pm 21.4 15.0 6.9 39 7.4 SSE 30 41 16 22 - - 0.0
28/12:00pm 20.6 15.5 6.2 39 7.2 SE 22 37 12 20 - - 0.0
28/11:30am 20.1 13.9 6.1 40 7.0 SE 28 39 15 21 - - 0.0
28/11:00am 19.4 12.7 5.5 40 6.8 SE 30 44 16 24 - - 0.0
28/10:42am 18.6 12.3 5.8 43 6.3 SE 28 52 15 28 - - 0.0
28/10:30am 18.6 12.3 5.5 42 6.4 SE 28 44 15 24 - - 0.0
28/10:00am 18.0 11.7 5.9 45 5.9 SE 28 48 15 26 - - 0.0
28/09:38am 17.3 9.7 5.6 46 5.7 SE 35 56 19 30 - - 0.0
28/09:30am 16.9 9.0 6.1 49 5.3 SE 37 52 20 28 - - 0.0
28/09:06am 16.5 8.9 5.8 49 5.2 SE 35 54 19 29 - - 0.0
28/09:00am 16.3 9.2 6.2 51 4.9 SE 33 50 18 27 - - 0.0
28/08:48am 15.4 7.9 6.2 54 4.5 SE 35 54 19 29 - - 0.0
28/08:30am 15.7 6.7 6.2 53 4.6 SE 43 59 23 32 - - 0.0
28/08:19am 15.6 7.7 6.3 54 4.5 SE 37 57 20 31 - - 0.0
28/08:00am 15.2 8.1 6.2 55 4.4 SE 33 48 18 26 - - 0.0
28/07:40am 14.8 7.7 5.6 54 4.4 SE 32 50 17 27 - - 0.0
28/07:30am 14.6 7.9 5.7 55 4.2 SE 30 43 16 23 - - 0.0
28/07:00am 14.0 7.7 5.9 58 3.9 SE 28 43 15 23 - - 0.0
28/06:30am 13.6 8.0 5.5 58 3.8 SE 24 33 13 18 - - 0.0
28/06:00am 14.0 9.4 5.4 56 4.1 SE 19 35 10 19 - - 0.0
28/05:30am 14.3 10.0 5.4 55 4.2 SE 17 26 9 14 - - 0.0
28/05:00am 14.6 10.5 6.2 57 4.0 SE 17 26 9 14 - - 0.0
28/04:30am 14.9 9.9 6.5 57 4.1 SE 22 32 12 17 - - 0.0
28/04:00am 15.2 9.8 6.2 55 4.4 SE 24 35 13 19 - - 0.0
28/03:30am 15.4 11.5 7.2 58 4.1 SE 17 33 9 18 - - 0.0
28/03:00am 15.7 11.5 7.5 58 4.1 SE 19 26 10 14 - - 0.0
28/02:30am 16.0 11.9 8.5 61 3.8 SE 20 32 11 17 - - 0.0
28/02:00am 16.0 12.1 8.7 62 3.7 SE 19 28 10 15 - - 0.0
28/01:30am 16.1 12.2 9.3 64 3.5 SE 20 30 11 16 - - 0.0
28/01:00am 16.3 12.5 9.9 66 3.4 SSE 20 37 11 20 - - 0.0
28/12:30am 15.8 13.0 9.9 68 3.1 S 15 22 8 12 - - 0.0
28/12:00am 15.4 11.7 9.5 68 3.1 SSE 19 26 10 14 - - 0.0
 
Date/Time
CDT
Temp
°C
App
Temp
°C
Dew
Point
Rel
Hum
%
Delta-T
°C
Wind Press
QNH
hPa
Press
MSL
hPa
Rain
since 9 am
mm
Dir
 
Spd
km/h
Gust
km/h
Spd
kts
Gust
kts
27/11:30pm 15.5 11.6 9.6 68 3.1 SSE 20 33 11 18 - - 0.0
27/11:00pm 15.0 11.9 8.9 67 3.1 SSE 15 26 8 14 - - 0.0
27/10:30pm 15.2 11.6 8.4 64 3.4 SSE 17 24 9 13 - - 0.0
27/10:00pm 15.4 11.8 8.4 63 3.5 SSE 17 35 9 19 - - 0.0
27/09:30pm 15.5 11.3 8.3 62 3.6 SSE 20 30 11 16 - - 0.0
27/09:00pm 15.6 11.4 8.1 61 3.8 SSE 20 28 11 15 - - 0.0
27/08:30pm 16.1 10.8 8.3 60 4.0 SSE 26 39 14 21 - - 0.0
27/08:00pm 16.7 9.9 7.6 55 4.6 SSE 33 43 18 23 - - 0.0
27/07:30pm 17.6 11.8 7.9 53 4.9 SSE 28 39 15 21 - - 0.0
27/07:00pm 18.0 12.0 7.1 49 5.5 S 28 44 15 24 - - 0.0
27/06:30pm 19.5 14.3 7.3 45 6.2 S 24 37 13 20 - - 0.0
27/06:00pm 19.1 13.1 6.9 45 6.2 SSE 28 43 15 23 - - 0.0
27/05:48pm 19.9 13.9 7.0 43 6.6 S 28 48 15 26 - - 0.0
27/05:30pm 19.4 13.5 5.8 41 6.7 SSE 26 39 14 21 - - 0.0
27/05:00pm 20.2 14.7 7.6 44 6.5 S 26 39 14 21 - - 0.0
27/04:30pm 19.3 13.8 7.7 47 5.9 SSE 26 43 14 23 - - 0.0
27/04:00pm 21.1 15.4 6.6 39 7.4 SSE 26 39 14 21 - - 0.0
27/03:30pm 19.7 13.6 6.8 43 6.5 SSE 28 37 15 20 - - 0.0
27/03:00pm 19.8 14.0 7.9 46 6.1 SSE 28 41 15 22 - - 0.0
27/02:30pm 20.9 15.9 6.4 39 7.3 SSE 22 35 12 19 - - 0.0
27/02:00pm 20.1 14.0 6.8 42 6.7 SSE 28 39 15 21 - - 0.0
27/01:30pm 20.6 15.3 6.9 41 7.0 SSE 24 35 13 19 - - 0.0
27/01:00pm 19.4 15.0 7.5 46 6.1 SSE 20 32 11 17 - - 0.0
27/12:30pm 18.6 13.1 7.4 48 5.7 SE 26 39 14 21 - - 0.0
27/12:00pm 19.4 14.9 6.8 44 6.4 SE 20 33 11 18 - - 0.0
27/11:30am 18.9 13.9 6.4 44 6.2 SSE 22 37 12 20 - - 0.0
27/11:00am 18.9 14.0 6.7 45 6.1 SSE 22 30 12 16 - - 0.0
27/10:30am 18.4 13.6 7.2 48 5.7 ESE 22 32 12 17 - - 0.0
27/10:00am 18.4 13.9 6.9 47 5.8 SE 20 30 11 16 - - 0.0
27/09:30am 17.8 13.5 7.2 50 5.3 SE 19 32 10 17 - - 0.0
27/09:00am 16.3 11.4 6.7 53 4.7 SE 22 33 12 18 - - 0.0
27/08:30am 15.7 11.3 6.7 55 4.4 ESE 19 32 10 17 - - 0.0
27/08:00am 14.8 10.5 6.9 59 3.9 ESE 19 26 10 14 - - 0.0
27/07:30am 14.2 11.0 6.8 61 3.6 ESE 13 24 7 13 - - 0.0
27/07:00am 13.3 9.7 6.6 64 3.2 ESE 15 22 8 12 - - 0.0
27/06:30am 12.9 9.7 6.7 66 3.0 ESE 13 17 7 9 - - 0.0
27/06:00am 13.0 9.4 6.8 66 3.0 ESE 15 22 8 12 - - 0.0
27/05:30am 13.3 9.5 7.5 68 2.8 ESE 17 24 9 13 - - 0.0
27/05:00am 13.6 9.9 7.8 68 2.9 ESE 17 30 9 16 - - 0.0
27/04:30am 13.6 10.7 8.2 70 2.7 ESE 13 19 7 10 - - 0.0
27/04:00am 14.0 11.5 8.2 68 2.9 SE 11 22 6 12 - - 0.0
27/03:30am 14.3 10.6 7.8 65 3.2 SE 17 24 9 13 - - 0.0
27/03:00am 14.4 11.1 8.1 66 3.2 SE 15 24 8 13 - - 0.0
27/02:30am 14.1 11.2 8.1 67 3.0 SE 13 22 7 12 - - 0.0
27/02:00am 13.6 11.1 8.0 69 2.8 SE 11 13 6 7 - - 0.0
27/01:30am 12.3 10.3 7.2 71 2.5 SE 7 11 4 6 - - 0.0
27/01:00am 12.1 10.2 6.6 69 2.6 SE 6 6 3 3 - - 0.0
27/12:30am 12.2 10.6 6.5 68 2.7 SE 4 6 2 3 - - 0.0
27/12:00am 12.5 10.5 6.3 66 2.9 SE 6 7 3 4 - - 0.0
 
Date/Time
CDT
Temp
°C
App
Temp
°C
Dew
Point
Rel
Hum
%
Delta-T
°C
Wind Press
QNH
hPa
Press
MSL
hPa
Rain
since 9 am
mm
Dir
 
Spd
km/h
Gust
km/h
Spd
kts
Gust
kts
26/11:30pm 13.2 11.0 6.3 63 3.3 SSE 7 9 4 5 - - 0.0
26/11:00pm 13.5 10.9 6.1 61 3.5 SSE 9 11 5 6 - - 0.0
26/10:30pm 13.9 11.3 6.3 60 3.6 SSE 9 11 5 6 - - 0.0
26/10:00pm 14.5 11.5 6.1 57 4.0 S 11 17 6 9 - - 0.0
26/09:30pm 14.9 11.9 6.2 56 4.2 SSE 11 17 6 9 - - 0.0
26/09:00pm 15.4 11.7 6.2 54 4.5 S 15 22 8 12 - - 0.0
26/08:30pm 15.9 11.4 6.3 53 4.7 SSE 19 28 10 15 - - 0.0
26/08:00pm 16.7 12.2 5.9 49 5.2 S 19 26 10 14 - - 0.0
26/07:30pm 17.7 11.9 4.6 42 6.2 S 24 33 13 18 - - 0.0
26/07:00pm 18.1 12.7 4.7 41 6.4 SSE 22 32 12 17 - - 0.0
26/06:30pm 19.2 14.2 4.6 38 7.0 S 20 35 11 19 - - 0.0
26/06:00pm 18.3 12.8 4.1 39 6.7 SSE 22 30 12 16 - - 0.0
26/05:30pm 19.6 14.4 3.7 35 7.6 SSE 20 30 11 16 - - 0.0
26/05:00pm 19.1 13.2 4.1 37 7.2 SSE 24 32 13 17 - - 0.0
26/04:30pm 19.9 15.1 4.4 36 7.5 SSE 19 37 10 20 - - 0.0
26/04:00pm 20.5 16.1 4.9 36 7.6 S 17 33 9 18 - - 0.0
26/03:30pm 19.7 14.7 4.6 37 7.3 SSE 20 32 11 17 - - 0.0
26/03:00pm 20.3 16.5 3.9 34 7.9 SE 13 20 7 11 - - 0.0
26/02:30pm 20.1 15.5 5.7 39 7.1 SE 19 28 10 15 - - 0.0
26/02:00pm 19.9 16.1 5.9 40 7.0 SE 15 28 8 15 - - 0.0
26/01:30pm 19.1 14.4 5.9 42 6.5 SE 20 30 11 16 - - 0.0
26/01:00pm 19.4 15.2 5.5 40 6.8 SE 17 28 9 15 - - 0.0
26/12:30pm 19.2 14.9 7.0 45 6.2 SSE 19 28 10 15 - - 0.0
26/12:00pm 19.0 14.8 5.8 42 6.5 SSE 17 26 9 14 - - 0.0
26/11:30am 18.3 13.8 6.2 45 6.0 SE 19 26 10 14 - - 0.0
26/11:00am 17.1 12.2 6.9 51 5.1 SSE 22 28 12 15 - - 0.0
26/10:30am 17.6 14.6 6.2 47 5.6 SSE 11 20 6 11 - - 0.0
26/10:00am 17.6 14.4 6.8 49 5.4 SSE 13 22 7 12 - - 0.0
26/09:30am 17.7 14.3 7.7 52 5.1 SSE 15 22 8 12 - - 0.0
26/09:00am 17.6 15.1 8.2 54 4.8 SSE 11 17 6 9 - - 0.0
26/08:30am 15.8 13.3 8.1 60 3.9 ESE 11 19 6 10 - - 0.0
26/08:00am 14.9 12.4 8.2 64 3.4 SE 11 15 6 8 - - 0.0
26/07:30am 14.4 11.9 8.4 67 3.0 ESE 11 15 6 8 - - 0.0
26/07:00am 13.9 11.8 8.3 69 2.8 SE 9 13 5 7 - - 0.0
26/06:30am 13.6 10.7 8.2 70 2.7 SE 13 19 7 10 - - 0.0
26/06:00am 13.4 9.4 8.9 74 2.3 SE 20 28 11 15 - - 0.0
26/05:30am 13.6 10.5 8.7 72 2.5 SSE 15 20 8 11 - - 0.0
26/05:00am 14.2 10.9 8.2 67 3.0 SE 15 20 8 11 - - 0.0
26/04:30am 14.9 13.8 8.4 65 3.3 S 4 7 2 4 - - 0.0
26/04:00am 14.9 14.2 8.4 65 3.3 SSE 2 4 1 2 - - 0.0
26/03:30am 14.7 14.0 8.4 66 3.2 SE 2 4 1 2 - - 0.0
26/03:00am 14.8 13.7 8.5 66 3.2 SSE 4 6 2 3 - - 0.0
26/02:30am 14.8 13.1 8.5 66 3.2 SSE 7 9 4 5 - - 0.0
26/02:00am 14.7 13.1 8.6 67 3.1 SE 7 11 4 6 - - 0.0
26/01:30am 14.6 12.6 8.5 67 3.1 ESE 9 13 5 7 - - 0.0
26/01:00am 14.4 13.4 9.0 70 2.8 SSE 4 6 2 3 - - 0.0
26/12:30am 14.4 13.2 9.4 72 2.6 SW 6 11 3 6 - - 0.0
26/12:00am 15.4 12.9 6.7 56 4.3 SSE 9 15 5 8 - - 0.0
 
Date/Time
CDT
Temp
°C
App
Temp
°C
Dew
Point
Rel
Hum
%
Delta-T
°C
Wind Press
QNH
hPa
Press
MSL
hPa
Rain
since 9 am
mm
Dir
 
Spd
km/h
Gust
km/h
Spd
kts
Gust
kts
25/11:30pm 15.3 13.4 6.6 56 4.2 SE 6 9 3 5 - - 0.0
25/11:00pm 14.9 12.9 6.2 56 4.2 SSE 6 7 3 4 - - 0.0
25/10:30pm 15.0 12.3 5.8 54 4.4 S 9 11 5 6 - - 0.0
25/10:00pm 15.6 12.6 5.8 52 4.7 S 11 15 6 8 - - 0.0
25/09:30pm 15.6 12.2 5.8 52 4.7 S 13 17 7 9 - - 0.0
25/09:00pm 16.3 12.0 5.3 48 5.3 S 17 26 9 14 - - 0.0
25/08:30pm 16.8 12.0 4.8 45 5.7 S 19 30 10 16 - - 0.0
25/08:00pm 17.1 11.7 4.4 43 6.0 S 22 33 12 18 - - 0.0
25/07:30pm 18.2 13.2 4.7 41 6.5 S 20 32 11 17 - - 0.0
25/07:00pm 19.7 14.9 4.6 37 7.3 SSW 19 28 10 15 - - 0.0
25/06:30pm 20.1 14.6 4.2 35 7.7 SW 22 33 12 18 - - 0.0
25/06:00pm 20.6 15.2 4.6 35 7.8 SW 22 35 12 19 - - 0.0
25/05:30pm 20.6 15.0 5.4 37 7.5 SW 24 33 13 18 - - 0.0

Other Formats:

Comma delimited format used in spreadsheet applications
http://www.bom.gov.au/fwo/IDS60801/IDS60801.94808.axf

JavaScript Object Notation format (JSON) in row-major order
http://www.bom.gov.au/fwo/IDS60801/IDS60801.94808.json